Time;durP1;ratioP1;P1;durP2;ratioP2;P2;SDS_P1;SDS_P2;PMS_P1;PMS_P2;Temp;Humidity;BMP_temperature;BMP_pressure;BME280_temperature;BME280_humidity;BME280_pressure;Samples;Min_cycle;Max_cycle;Signal;HPM_P1;HPM_P2
2023/12/29 00:00:33;;;;;;;2.33;1.90;;;13.90;62.20;;;;;;5005531;28;20202;-59
2023/12/29 00:02:59;;;;;;;3.87;2.17;;;13.80;62.00;;;;;;5007656;28;20192;-60
2023/12/29 00:05:25;;;;;;;1.97;1.80;;;13.70;62.40;;;;;;5001907;28;20218;-58
2023/12/29 00:07:50;;;;;;;2.40;2.20;;;13.80;62.70;;;;;;5007876;28;20425;-58
2023/12/29 00:10:16;;;;;;;1.93;1.83;;;13.70;62.60;;;;;;5005900;28;20182;-60
2023/12/29 00:12:41;;;;;;;2.00;1.80;;;13.60;63.20;;;;;;5007053;28;20199;-59
2023/12/29 00:15:07;;;;;;;2.77;1.90;;;13.50;63.50;;;;;;5013559;28;20185;-60
2023/12/29 00:17:37;;;;;;;2.53;1.70;;;13.60;63.50;;;;;;5009871;28;20239;-58
2023/12/29 00:20:04;;;;;;;2.37;2.07;;;13.60;63.30;;;;;;5003207;28;20421;-60
2023/12/29 00:22:29;;;;;;;2.37;2.10;;;13.60;63.50;;;;;;4997789;28;20509;-58
2023/12/29 00:24:55;;;;;;;1.90;1.77;;;13.50;62.90;;;;;;5000913;28;20509;-60
2023/12/29 00:27:21;;;;;;;2.47;1.87;;;13.60;62.70;;;;;;4999832;28;20279;-59
2023/12/29 00:29:46;;;;;;;2.00;1.80;;;13.50;62.40;;;;;;5002638;28;20206;-59
2023/12/29 00:32:12;;;;;;;2.57;2.20;;;13.40;62.50;;;;;;4996304;28;20179;-58
2023/12/29 00:34:37;;;;;;;2.70;1.90;;;13.60;62.80;;;;;;4996369;28;20190;-58
2023/12/29 00:37:03;;;;;;;2.20;2.00;;;13.60;62.20;;;;;;5006126;28;20343;-60
2023/12/29 00:39:30;;;;;;;2.87;2.30;;;13.70;62.00;;;;;;5011204;28;20186;-59
2023/12/29 00:41:57;;;;;;;3.40;2.30;;;13.70;61.80;;;;;;5012817;28;20564;-58
2023/12/29 00:44:23;;;;;;;4.10;2.03;;;13.70;62.00;;;;;;5012168;28;20459;-60
2023/12/29 00:46:49;;;;;;;2.20;1.90;;;13.50;61.10;;;;;;5011503;28;20909;-58
2023/12/29 00:49:15;;;;;;;2.47;2.10;;;13.60;61.80;;;;;;5013997;28;20608;-60
2023/12/29 00:51:43;;;;;;;2.70;2.40;;;13.60;61.80;;;;;;5013272;28;20193;-58
2023/12/29 00:54:08;;;;;;;2.13;1.93;;;13.80;61.60;;;;;;5008594;28;20594;-60
2023/12/29 00:56:34;;;;;;;2.97;2.07;;;13.80;61.20;;;;;;5009541;28;20471;-60
2023/12/29 00:59:00;;;;;;;3.23;2.00;;;13.90;61.30;;;;;;5014102;28;20193;-59
2023/12/29 01:01:25;;;;;;;2.00;1.80;;;13.80;61.40;;;;;;5013617;28;20683;-59
2023/12/29 01:03:54;;;;;;;2.13;2.03;;;13.80;61.10;;;;;;5013671;28;20411;-60
2023/12/29 01:06:20;;;;;;;10.30;2.40;;;13.90;61.30;;;;;;5013059;28;20221;-60
2023/12/29 01:08:46;;;;;;;2.60;2.40;;;13.90;60.70;;;;;;5010363;28;20452;-59
2023/12/29 01:11:11;;;;;;;2.77;2.30;;;13.80;60.20;;;;;;5013914;28;20953;-60
2023/12/29 01:13:37;;;;;;;2.93;2.73;;;13.70;60.80;;;;;;5013310;28;20185;-59
2023/12/29 01:16:02;;;;;;;2.63;2.40;;;13.80;60.60;;;;;;5012908;28;20206;-60
2023/12/29 01:18:28;;;;;;;2.60;2.27;;;14.00;60.20;;;;;;5010602;28;20440;-60
2023/12/29 01:20:53;;;;;;;3.33;2.50;;;13.80;59.90;;;;;;5004300;28;20670;-59
2023/12/29 01:23:19;;;;;;;2.60;2.40;;;13.70;59.80;;;;;;5005412;28;20220;-60
2023/12/29 01:25:45;;;;;;;2.53;2.33;;;13.80;60.20;;;;;;4994991;28;20293;-58
2023/12/29 01:28:11;;;;;;;2.37;2.17;;;13.60;59.80;;;;;;4998169;28;20197;-59
2023/12/29 01:30:36;;;;;;;4.10;2.70;;;13.60;60.20;;;;;;4994826;28;20201;-60
2023/12/29 01:33:02;;;;;;;2.67;2.47;;;13.50;60.20;;;;;;5000255;28;20933;-58
2023/12/29 01:35:27;;;;;;;3.33;2.60;;;13.40;60.40;;;;;;5000786;28;20230;-60
2023/12/29 01:37:55;;;;;;;2.70;2.50;;;13.40;60.30;;;;;;5005511;28;20581;-60
2023/12/29 01:40:21;;;;;;;4.60;2.53;;;13.50;60.10;;;;;;4996906;28;20214;-59
2023/12/29 01:42:46;;;;;;;3.73;2.30;;;13.60;59.80;;;;;;4994002;28;20956;-60
2023/12/29 01:45:22;;;;;;;2.30;2.10;;;13.70;59.30;;;;;;4992268;28;20600;-60
2023/12/29 01:47:52;;;;;;;2.50;2.30;;;13.70;59.40;;;;;;4997873;28;20658;-60
2023/12/29 01:50:20;;;;;;;2.80;2.60;;;13.60;59.30;;;;;;4999694;28;20459;-59
2023/12/29 01:52:47;;;;;;;2.40;2.20;;;13.50;59.60;;;;;;4997902;28;21011;-60
2023/12/29 01:55:18;;;;;;;2.70;2.50;;;13.80;59.90;;;;;;5007607;28;20481;-58
2023/12/29 01:57:43;;;;;;;5.03;3.03;;;13.70;59.40;;;;;;5009843;28;20466;-60
2023/12/29 02:00:11;;;;;;;2.77;2.57;;;13.70;59.70;;;;;;5010278;28;20507;-58
2023/12/29 02:02:37;;;;;;;4.67;2.73;;;13.70;59.60;;;;;;5010296;28;20205;-60
2023/12/29 02:05:03;;;;;;;4.40;2.63;;;13.70;59.60;;;;;;5009256;28;20461;-59
2023/12/29 02:07:30;;;;;;;2.80;2.57;;;13.60;59.80;;;;;;5008102;28;20284;-60
2023/12/29 02:09:57;;;;;;;3.13;2.50;;;13.40;60.10;;;;;;5006663;28;20657;-60
2023/12/29 02:12:23;;;;;;;2.43;2.33;;;13.50;60.20;;;;;;5007897;28;20464;-60
2023/12/29 02:14:49;;;;;;;3.17;2.87;;;13.60;60.10;;;;;;4999348;28;20481;-60
2023/12/29 02:17:22;;;;;;;2.53;2.33;;;13.70;60.10;;;;;;5003044;28;20220;-59
2023/12/29 02:19:49;;;;;;;3.23;2.83;;;13.70;59.70;;;;;;5009819;28;20259;-60
2023/12/29 02:22:15;;;;;;;6.20;2.70;;;13.60;60.00;;;;;;5010255;28;20432;-60
2023/12/29 02:24:46;;;;;;;4.10;2.30;;;13.70;60.00;;;;;;5007927;28;20858;-60
2023/12/29 02:27:20;;;;;;;2.60;2.40;;;13.80;59.80;;;;;;5005921;28;20218;-60
2023/12/29 02:30:02;;;;;;;4.90;3.10;;;13.80;59.80;;;;;;5008785;28;20464;-57
2023/12/29 02:32:30;;;;;;;3.00;2.70;;;13.90;59.70;;;;;;5004771;28;20457;-59
2023/12/29 02:34:57;;;;;;;3.23;2.93;;;13.60;59.50;;;;;;5004877;28;20944;-60
2023/12/29 02:37:24;;;;;;;3.30;2.60;;;13.70;60.40;;;;;;5007831;28;20594;-60
2023/12/29 02:39:50;;;;;;;3.00;2.80;;;13.60;60.00;;;;;;5002484;28;20433;-60
2023/12/29 02:42:16;;;;;;;4.37;3.60;;;13.70;60.10;;;;;;5006334;28;20510;-60
2023/12/29 02:44:41;;;;;;;3.17;2.87;;;13.90;59.70;;;;;;5008001;28;20216;-59
2023/12/29 02:47:07;;;;;;;3.10;2.83;;;13.70;60.00;;;;;;5004541;28;20298;-59
2023/12/29 02:49:32;;;;;;;2.83;2.60;;;13.50;59.90;;;;;;5004002;28;20220;-60
2023/12/29 02:51:58;;;;;;;3.63;3.33;;;13.50;60.40;;;;;;5006820;28;20201;-59
2023/12/29 02:54:23;;;;;;;3.40;3.10;;;13.30;60.70;;;;;;5008690;28;20268;-58
2023/12/29 02:56:49;;;;;;;4.27;2.97;;;13.60;60.70;;;;;;5007810;28;20272;-60
2023/12/29 02:59:14;;;;;;;4.00;3.30;;;13.90;60.00;;;;;;5009706;28;20190;-58
2023/12/29 03:01:40;;;;;;;2.90;2.60;;;13.80;59.70;;;;;;5003565;28;20200;-58
2023/12/29 03:04:06;;;;;;;3.43;3.20;;;13.70;59.80;;;;;;5008331;28;20662;-59
2023/12/29 03:06:31;;;;;;;3.40;3.10;;;13.60;60.20;;;;;;5006838;28;20214;-59
2023/12/29 03:08:57;;;;;;;2.97;2.77;;;13.50;61.00;;;;;;5009738;28;20568;-59
2023/12/29 03:11:22;;;;;;;3.40;3.20;;;13.50;61.40;;;;;;5007012;28;20193;-60
2023/12/29 03:13:48;;;;;;;5.13;3.17;;;13.50;61.20;;;;;;5004615;28;20182;-59
2023/12/29 03:16:14;;;;;;;2.87;2.67;;;13.50;61.80;;;;;;5002839;28;20201;-58
2023/12/29 03:18:41;;;;;;;4.40;3.20;;;13.70;61.50;;;;;;5006166;28;20192;-61
2023/12/29 03:21:07;;;;;;;3.37;2.87;;;13.40;61.60;;;;;;5008502;28;20182;-59
2023/12/29 03:23:33;;;;;;;3.43;2.90;;;13.40;62.40;;;;;;5009402;28;20523;-59
2023/12/29 03:25:58;;;;;;;3.30;3.00;;;13.60;62.50;;;;;;5004757;28;20472;-60
2023/12/29 03:28:24;;;;;;;3.00;2.80;;;13.60;62.40;;;;;;5007016;28;20213;-59
2023/12/29 03:30:49;;;;;;;3.43;3.13;;;13.40;62.80;;;;;;5008745;28;20182;-59
2023/12/29 03:33:15;;;;;;;5.60;3.30;;;13.60;63.10;;;;;;4996339;28;20200;-59
2023/12/29 03:35:41;;;;;;;4.97;3.40;;;13.60;62.90;;;;;;4998686;28;20293;-60
2023/12/29 03:38:06;;;;;;;4.30;2.83;;;13.40;62.80;;;;;;5005209;28;20236;-59
2023/12/29 03:40:32;;;;;;;3.90;3.30;;;13.40;63.30;;;;;;5004038;28;20190;-59
2023/12/29 03:42:58;;;;;;;3.87;3.20;;;13.30;63.60;;;;;;5005385;28;20574;-59
2023/12/29 03:45:24;;;;;;;4.53;3.30;;;13.50;64.10;;;;;;5005287;28;20209;-58
2023/12/29 03:47:49;;;;;;;3.37;3.07;;;13.60;63.60;;;;;;5005000;28;20472;-60
2023/12/29 03:50:15;;;;;;;3.10;2.80;;;13.60;63.50;;;;;;5007126;28;20243;-59
2023/12/29 03:52:40;;;;;;;3.87;3.40;;;13.50;63.90;;;;;;5002905;28;20681;-60
2023/12/29 03:55:06;;;;;;;4.13;2.80;;;13.40;64.10;;;;;;5002059;28;20252;-60
2023/12/29 03:57:32;;;;;;;7.33;2.97;;;13.20;64.30;;;;;;5007227;28;20197;-59
2023/12/29 03:59:57;;;;;;;2.80;2.60;;;13.10;65.20;;;;;;5003320;28;20432;-60
2023/12/29 04:02:23;;;;;;;2.30;2.20;;;13.10;65.70;;;;;;5008931;28;20193;-59
2023/12/29 04:04:48;;;;;;;4.50;2.73;;;13.20;65.50;;;;;;5004253;28;20197;-60
2023/12/29 04:07:14;;;;;;;4.10;2.70;;;13.20;65.50;;;;;;5007786;28;20218;-59
2023/12/29 04:09:39;;;;;;;2.67;2.50;;;13.20;65.60;;;;;;5007794;28;20194;-59
2023/12/29 04:12:05;;;;;;;2.50;2.30;;;13.10;65.60;;;;;;5005298;28;20186;-59
2023/12/29 04:14:31;;;;;;;5.80;2.90;;;13.30;65.50;;;;;;5007667;28;20190;-59
2023/12/29 04:16:56;;;;;;;2.63;2.27;;;13.30;65.40;;;;;;5004316;28;20218;-59
2023/12/29 04:19:22;;;;;;;2.93;2.10;;;13.30;65.60;;;;;;5004280;28;20229;-60
2023/12/29 04:21:47;;;;;;;2.60;2.40;;;13.30;65.30;;;;;;5008281;28;20240;-59
2023/12/29 04:24:13;;;;;;;3.97;2.33;;;13.50;65.50;;;;;;5007389;28;20190;-60
2023/12/29 04:26:38;;;;;;;2.30;2.10;;;13.60;65.00;;;;;;5005535;28;20225;-60
2023/12/29 04:29:04;;;;;;;3.80;2.03;;;13.40;65.00;;;;;;5006267;28;20206;-59
2023/12/29 04:31:29;;;;;;;2.87;1.90;;;13.50;65.20;;;;;;5006670;28;20216;-60
2023/12/29 04:33:55;;;;;;;2.10;2.00;;;13.60;65.10;;;;;;5008442;28;20236;-60
2023/12/29 04:36:21;;;;;;;3.63;2.37;;;13.70;64.90;;;;;;5005684;28;20260;-60
2023/12/29 04:38:46;;;;;;;2.13;1.97;;;13.40;65.10;;;;;;5006537;28;20190;-60
2023/12/29 04:41:13;;;;;;;2.27;2.13;;;13.50;65.50;;;;;;5006359;28;20196;-60
2023/12/29 04:43:38;;;;;;;2.60;2.10;;;13.50;65.20;;;;;;5006404;28;20194;-59
2023/12/29 04:46:04;;;;;;;1.87;1.77;;;13.40;65.50;;;;;;5005910;28;20543;-59
2023/12/29 04:48:29;;;;;;;1.97;1.87;;;13.40;65.70;;;;;;5008478;28;20214;-58
2023/12/29 04:50:55;;;;;;;2.70;2.50;;;13.40;66.40;;;;;;5007769;28;20197;-57
2023/12/29 04:53:20;;;;;;;2.60;2.30;;;13.50;66.70;;;;;;5008067;28;20232;-59
2023/12/29 04:55:46;;;;;;;4.57;2.53;;;13.50;65.90;;;;;;5004199;28;20202;-59
2023/12/29 04:58:11;;;;;;;2.50;2.03;;;13.50;66.10;;;;;;5011582;28;20217;-58
2023/12/29 05:00:37;;;;;;;2.73;2.53;;;13.60;65.70;;;;;;5002482;28;20197;-58
2023/12/29 05:03:03;;;;;;;2.40;2.20;;;13.70;65.90;;;;;;5011587;28;20653;-60
2023/12/29 05:05:28;;;;;;;2.10;1.90;;;13.50;65.90;;;;;;5004277;28;20283;-60
2023/12/29 05:07:54;;;;;;;3.23;2.33;;;13.50;66.20;;;;;;5007192;28;20209;-59
2023/12/29 05:10:19;;;;;;;2.80;2.60;;;13.50;66.20;;;;;;5009853;28;20194;-61
2023/12/29 05:12:45;;;;;;;2.50;2.30;;;13.40;66.40;;;;;;5008135;28;20199;-59
2023/12/29 05:15:10;;;;;;;3.27;2.37;;;13.60;66.60;;;;;;5005981;28;20182;-59
2023/12/29 05:17:37;;;;;;;2.53;2.33;;;13.80;66.00;;;;;;4998750;28;20665;-59
2023/12/29 05:20:03;;;;;;;2.40;2.20;;;13.90;65.50;;;;;;5007392;28;20210;-60
2023/12/29 05:22:28;;;;;;;5.40;2.10;;;13.90;65.30;;;;;;5002330;28;20809;-59
2023/12/29 05:24:57;;;;;;;3.30;2.40;;;13.90;65.00;;;;;;5001976;28;20429;-59
2023/12/29 05:27:23;;;;;;;2.53;2.33;;;13.90;65.20;;;;;;5002956;28;20241;-59
2023/12/29 05:29:48;;;;;;;3.10;2.67;;;14.00;65.70;;;;;;5007381;28;20908;-60
2023/12/29 05:32:14;;;;;;;2.70;2.50;;;13.80;66.10;;;;;;5003564;28;20185;-58
2023/12/29 05:34:39;;;;;;;2.60;2.40;;;13.80;66.70;;;;;;4999786;28;20193;-59
2023/12/29 05:37:05;;;;;;;2.37;2.17;;;13.90;67.20;;;;;;5010935;28;20206;-60
2023/12/29 05:39:31;;;;;;;2.50;2.30;;;13.80;67.00;;;;;;5008920;28;20198;-59
2023/12/29 05:41:56;;;;;;;3.13;2.57;;;13.70;67.90;;;;;;5009291;28;20174;-58
2023/12/29 05:44:22;;;;;;;2.30;2.20;;;13.70;67.70;;;;;;5004264;28;20190;-60
2023/12/29 05:46:48;;;;;;;3.50;2.83;;;13.70;68.00;;;;;;5008797;28;20233;-59
2023/12/29 05:49:13;;;;;;;3.20;2.70;;;13.60;68.50;;;;;;5011113;28;20229;-60
2023/12/29 05:51:39;;;;;;;3.07;2.77;;;13.60;68.90;;;;;;5003446;28;20604;-60
2023/12/29 05:54:05;;;;;;;3.17;2.87;;;13.60;68.70;;;;;;5007497;28;20197;-60
2023/12/29 05:56:31;;;;;;;2.53;2.03;;;13.60;68.80;;;;;;5003938;28;20685;-60
2023/12/29 05:58:56;;;;;;;2.57;2.37;;;13.80;68.80;;;;;;5006075;28;20428;-58
2023/12/29 06:01:22;;;;;;;3.00;2.60;;;13.80;68.10;;;;;;5007803;28;20194;-59
2023/12/29 06:03:47;;;;;;;4.10;2.90;;;13.80;68.30;;;;;;5007915;28;20672;-58
2023/12/29 06:06:13;;;;;;;4.17;2.83;;;14.10;67.90;;;;;;5007358;28;20308;-58
2023/12/29 06:08:42;;;;;;;2.90;2.70;;;14.30;67.30;;;;;;5003059;28;20662;-58
2023/12/29 06:11:08;;;;;;;2.33;2.13;;;14.40;67.20;;;;;;5006863;28;20528;-60
2023/12/29 06:13:33;;;;;;;2.90;2.60;;;14.50;66.80;;;;;;5008219;28;20519;-60
2023/12/29 06:15:59;;;;;;;2.30;2.10;;;14.40;66.90;;;;;;5009272;28;20562;-61
2023/12/29 06:18:25;;;;;;;2.37;2.17;;;14.40;67.10;;;;;;5004850;28;20202;-59
2023/12/29 06:20:50;;;;;;;2.63;2.43;;;14.30;67.90;;;;;;5008821;28;20659;-60
2023/12/29 06:23:17;;;;;;;3.40;2.70;;;14.20;67.70;;;;;;5007717;28;20252;-60
2023/12/29 06:25:42;;;;;;;5.20;2.83;;;14.10;68.30;;;;;;5006144;28;20704;-59
2023/12/29 06:28:08;;;;;;;3.30;2.50;;;14.10;69.50;;;;;;5008657;28;20491;-61
2023/12/29 06:30:34;;;;;;;2.60;2.40;;;13.80;69.10;;;;;;5009195;28;20662;-61
2023/12/29 06:32:59;;;;;;;4.07;2.80;;;13.80;68.80;;;;;;5007996;28;20488;-60
2023/12/29 06:35:25;;;;;;;6.27;2.93;;;13.80;69.10;;;;;;5006372;28;20212;-58
2023/12/29 06:37:50;;;;;;;2.57;2.37;;;13.70;69.20;;;;;;5005986;28;20240;-61
2023/12/29 06:40:17;;;;;;;3.50;2.80;;;13.90;68.90;;;;;;5007878;28;20267;-61
2023/12/29 06:42:42;;;;;;;2.67;2.47;;;14.10;67.90;;;;;;5006379;28;20717;-60
2023/12/29 06:45:08;;;;;;;2.73;2.50;;;14.10;67.60;;;;;;5005141;28;20520;-60
2023/12/29 06:47:34;;;;;;;2.70;2.50;;;13.80;68.10;;;;;;5003928;28;20232;-60
2023/12/29 06:49:59;;;;;;;3.87;2.10;;;13.90;68.50;;;;;;5007301;28;20190;-60
2023/12/29 06:52:26;;;;;;;2.83;2.00;;;14.00;67.80;;;;;;5004420;28;20241;-60
2023/12/29 06:54:52;;;;;;;2.63;2.27;;;13.90;68.00;;;;;;5008697;28;20245;-60
2023/12/29 06:57:17;;;;;;;2.03;1.93;;;13.50;68.90;;;;;;5003138;28;20579;-60
2023/12/29 06:59:43;;;;;;;5.67;2.40;;;13.50;69.80;;;;;;5005831;28;20269;-60
2023/12/29 07:02:08;;;;;;;2.20;2.00;;;13.40;70.50;;;;;;5008135;28;20182;-60
2023/12/29 07:04:34;;;;;;;2.63;2.43;;;13.40;70.70;;;;;;5009014;28;20209;-60
2023/12/29 07:07:01;;;;;;;2.33;2.13;;;13.40;70.80;;;;;;5003946;28;20214;-60
2023/12/29 07:09:27;;;;;;;5.03;2.70;;;13.40;70.90;;;;;;5005520;28;20190;-60
2023/12/29 07:11:53;;;;;;;3.40;2.43;;;13.10;71.80;;;;;;5004895;28;21039;-60
2023/12/29 07:14:18;;;;;;;2.30;2.10;;;13.10;72.30;;;;;;5002937;28;20207;-59
2023/12/29 07:16:44;;;;;;;2.47;2.27;;;13.10;72.30;;;;;;5000964;28;20210;-61
2023/12/29 07:19:10;;;;;;;2.73;2.53;;;13.00;72.70;;;;;;4995822;28;20191;-61
2023/12/29 07:21:35;;;;;;;2.80;2.30;;;13.10;72.90;;;;;;5005482;28;20213;-60
2023/12/29 07:24:01;;;;;;;2.43;2.23;;;13.10;72.90;;;;;;4998365;28;20182;-60
2023/12/29 07:26:26;;;;;;;4.17;2.60;;;13.20;73.00;;;;;;4996788;28;20226;-59
2023/12/29 07:28:54;;;;;;;2.60;1.97;;;13.00;72.80;;;;;;5003244;28;20221;-61
2023/12/29 07:31:22;;;;;;;2.27;2.07;;;13.10;73.40;;;;;;4999728;28;20247;-62
2023/12/29 07:33:48;;;;;;;3.37;2.13;;;13.10;73.10;;;;;;4992830;28;20953;-60
2023/12/29 07:36:14;;;;;;;3.13;1.93;;;13.30;72.60;;;;;;4990307;28;20444;-60
2023/12/29 07:38:40;;;;;;;2.07;1.97;;;13.20;72.50;;;;;;4992148;28;20418;-58
2023/12/29 07:41:05;;;;;;;5.07;2.13;;;13.10;72.60;;;;;;4991810;28;20175;-60
2023/12/29 07:43:32;;;;;;;2.20;2.10;;;13.00;73.70;;;;;;4992190;28;20561;-60
2023/12/29 07:45:57;;;;;;;2.47;2.10;;;13.20;73.60;;;;;;4990301;28;20225;-60
2023/12/29 07:48:23;;;;;;;2.30;2.10;;;13.30;72.40;;;;;;4998160;28;20434;-60
2023/12/29 07:50:49;;;;;;;2.23;2.07;;;13.50;71.80;;;;;;4991680;28;20556;-60
2023/12/29 07:53:14;;;;;;;2.13;1.93;;;13.60;71.50;;;;;;4996741;28;20556;-60
2023/12/29 07:55:40;;;;;;;3.87;2.10;;;13.70;71.10;;;;;;5005315;28;20210;-60
2023/12/29 07:58:06;;;;;;;2.50;2.27;;;13.60;70.90;;;;;;5006852;28;20626;-60
2023/12/29 08:00:31;;;;;;;2.47;2.20;;;13.50;71.50;;;;;;4996397;28;20187;-59
2023/12/29 08:02:59;;;;;;;2.40;2.10;;;13.50;71.50;;;;;;4991238;28;20189;-60
2023/12/29 08:05:24;;;;;;;2.23;1.87;;;13.40;71.60;;;;;;5000925;28;20222;-60
2023/12/29 08:07:50;;;;;;;2.20;2.00;;;13.60;71.70;;;;;;4998434;28;20469;-59
2023/12/29 08:10:16;;;;;;;2.03;1.83;;;13.50;71.80;;;;;;4994935;28;20174;-60
2023/12/29 08:12:41;;;;;;;2.40;2.23;;;13.50;72.00;;;;;;5008441;28;20225;-60
2023/12/29 08:15:07;;;;;;;2.40;2.20;;;13.60;71.80;;;;;;5006253;28;20189;-60
2023/12/29 08:17:32;;;;;;;2.10;1.80;;;13.70;71.80;;;;;;5001941;28;20197;-60
2023/12/29 08:19:58;;;;;;;2.20;2.00;;;13.70;71.30;;;;;;4998619;28;20372;-60
2023/12/29 08:22:24;;;;;;;2.37;2.00;;;13.60;71.60;;;;;;4991857;28;20221;-60
2023/12/29 08:24:49;;;;;;;2.00;1.90;;;13.60;72.20;;;;;;4998928;28;20190;-58
2023/12/29 08:27:23;;;;;;;2.20;2.00;;;13.50;71.60;;;;;;4991239;28;20214;-60
2023/12/29 08:29:48;;;;;;;2.90;1.83;;;13.50;71.80;;;;;;4990645;28;20187;-60
2023/12/29 08:32:14;;;;;;;1.70;1.60;;;13.50;71.60;;;;;;4994624;28;20417;-60
2023/12/29 08:34:39;;;;;;;1.93;1.83;;;13.50;71.80;;;;;;4994931;28;20186;-59
2023/12/29 08:37:05;;;;;;;2.17;2.00;;;13.50;71.60;;;;;;4995378;28;20203;-60
2023/12/29 08:39:31;;;;;;;3.67;2.40;;;13.40;72.20;;;;;;4996590;28;20186;-60
2023/12/29 08:41:56;;;;;;;2.20;1.90;;;13.30;72.40;;;;;;4994873;28;20888;-59
2023/12/29 08:44:22;;;;;;;3.70;2.20;;;13.30;72.50;;;;;;5002215;28;20186;-59
2023/12/29 08:46:48;;;;;;;2.63;2.43;;;13.40;72.30;;;;;;4995396;28;20304;-60
2023/12/29 08:49:13;;;;;;;2.07;1.93;;;13.40;72.40;;;;;;5001426;28;20616;-59
2023/12/29 08:51:39;;;;;;;2.27;2.07;;;13.40;72.00;;;;;;4998117;28;20186;-60
2023/12/29 08:54:05;;;;;;;4.50;2.37;;;13.40;71.80;;;;;;5005003;28;20265;-58
2023/12/29 08:56:30;;;;;;;2.10;1.90;;;13.40;72.50;;;;;;4999090;28;20206;-59
2023/12/29 08:58:56;;;;;;;2.43;2.23;;;13.30;72.70;;;;;;5004755;28;20647;-60
2023/12/29 09:01:21;;;;;;;2.40;2.20;;;13.60;72.90;;;;;;4998551;28;20980;-61
2023/12/29 09:03:47;;;;;;;2.37;2.17;;;13.70;72.30;;;;;;4995209;28;20306;-60
2023/12/29 09:06:13;;;;;;;2.57;1.90;;;13.80;71.80;;;;;;5002546;28;20711;-60
2023/12/29 09:08:39;;;;;;;2.50;1.90;;;13.90;70.90;;;;;;5007223;28;20190;-58
2023/12/29 09:11:05;;;;;;;2.53;2.33;;;14.00;70.50;;;;;;5010394;28;20425;-60
2023/12/29 09:13:31;;;;;;;2.40;2.20;;;14.10;70.50;;;;;;5004388;28;20224;-60
2023/12/29 09:15:58;;;;;;;2.93;1.97;;;14.10;70.00;;;;;;5003418;28;20206;-61
2023/12/29 09:18:24;;;;;;;2.73;2.13;;;14.20;69.80;;;;;;5010522;28;20448;-60
2023/12/29 09:20:50;;;;;;;2.33;2.10;;;14.10;69.30;;;;;;5009371;28;20429;-60
2023/12/29 09:23:15;;;;;;;3.30;2.30;;;14.20;69.50;;;;;;5001908;28;20189;-60
2023/12/29 09:25:41;;;;;;;1.50;1.40;;;14.10;68.90;;;;;;5007754;28;20462;-60
2023/12/29 09:28:07;;;;;;;1.70;1.60;;;13.90;69.00;;;;;;5008345;28;20197;-60
2023/12/29 09:30:33;;;;;;;1.80;1.70;;;14.10;69.60;;;;;;5003014;28;20570;-59
2023/12/29 09:32:58;;;;;;;2.20;1.80;;;13.90;69.20;;;;;;5006090;28;20233;-60
2023/12/29 09:35:24;;;;;;;2.83;1.60;;;13.90;69.60;;;;;;5004142;28;20218;-58
2023/12/29 09:37:50;;;;;;;2.20;1.70;;;13.90;69.70;;;;;;5010409;28;20256;-60
2023/12/29 09:40:16;;;;;;;2.20;2.00;;;14.00;69.60;;;;;;5002957;28;20256;-59
2023/12/29 09:42:44;;;;;;;1.53;1.43;;;14.10;69.10;;;;;;5001275;28;20198;-59
2023/12/29 09:45:11;;;;;;;2.33;2.13;;;14.20;69.20;;;;;;5003069;28;20433;-60
2023/12/29 09:47:43;;;;;;;1.40;1.30;;;14.40;68.60;;;;;;5005095;28;20484;-59
2023/12/29 09:50:11;;;;;;;3.20;1.80;;;14.60;67.70;;;;;;5001091;28;20840;-59
2023/12/29 09:52:38;;;;;;;4.03;1.90;;;14.50;67.20;;;;;;5005477;28;20859;-60
2023/12/29 09:55:07;;;;;;;1.50;1.40;;;14.40;67.70;;;;;;5005548;28;20441;-60
2023/12/29 09:57:33;;;;;;;1.57;1.47;;;14.30;67.70;;;;;;5005570;28;20483;-59
2023/12/29 09:59:59;;;;;;;1.47;1.37;;;14.30;67.30;;;;;;4999392;28;20446;-60
2023/12/29 10:02:25;;;;;;;1.60;1.50;;;14.50;67.40;;;;;;5000327;28;20202;-60
2023/12/29 10:04:50;;;;;;;2.40;1.80;;;14.80;67.00;;;;;;5001484;28;20456;-60
2023/12/29 10:07:26;;;;;;;1.60;1.50;;;14.90;66.00;;;;;;5006094;28;20229;-60
2023/12/29 10:09:58;;;;;;;2.13;1.57;;;14.90;65.40;;;;;;4996940;28;20908;-61
2023/12/29 10:12:24;;;;;;;2.00;1.60;;;15.20;65.50;;;;;;5004050;28;20448;-61
2023/12/29 10:15:15;;;;;;;1.30;1.20;;;15.40;64.70;;;;;;5005974;28;20441;-60
2023/12/29 10:18:03;;;;;;;2.00;1.60;;;15.60;63.70;;;;;;5005832;28;20435;-61
2023/12/29 10:20:50;;;;;;;1.70;1.60;;;15.60;62.90;;;;;;4997284;28;20459;-60
2023/12/29 10:23:25;;;;;;;1.43;1.33;;;15.50;62.40;;;;;;5000975;28;20445;-59
2023/12/29 10:25:51;;;;;;;1.73;1.57;;;15.80;62.40;;;;;;4999419;28;20682;-61
2023/12/29 10:28:20;;;;;;;2.20;2.00;;;16.10;61.60;;;;;;4995122;28;20880;-61
2023/12/29 10:30:47;;;;;;;1.57;1.40;;;16.50;60.90;;;;;;4996303;28;20440;-61
2023/12/29 10:33:21;;;;;;;1.43;1.33;;;17.00;60.00;;;;;;5006274;28;20443;-60
2023/12/29 10:35:58;;;;;;;1.67;1.57;;;17.40;58.90;;;;;;5008563;28;20479;-61
2023/12/29 10:38:24;;;;;;;2.53;1.40;;;17.50;58.10;;;;;;5006766;28;20447;-61
2023/12/29 10:40:49;;;;;;;1.40;1.30;;;17.60;57.90;;;;;;5002977;28;20960;-59
2023/12/29 10:43:22;;;;;;;1.40;1.30;;;17.80;57.20;;;;;;5001743;28;20272;-61
2023/12/29 10:45:48;;;;;;;2.03;1.40;;;18.00;56.90;;;;;;4999901;28;20296;-61
2023/12/29 10:48:23;;;;;;;2.70;1.57;;;18.00;56.20;;;;;;5009921;28;20512;-60
2023/12/29 10:50:49;;;;;;;1.70;1.60;;;18.10;56.20;;;;;;5002526;28;20272;-62
2023/12/29 10:53:17;;;;;;;1.10;1.03;;;18.10;55.50;;;;;;5002512;28;20507;-62
2023/12/29 10:55:42;;;;;;;1.20;1.10;;;18.00;55.20;;;;;;4997318;28;20197;-59
2023/12/29 10:58:08;;;;;;;1.77;1.50;;;18.10;54.80;;;;;;5001820;28;21094;-61
2023/12/29 11:00:34;;;;;;;1.20;1.10;;;17.70;55.00;;;;;;5003089;28;20182;-61
2023/12/29 11:03:02;;;;;;;4.50;1.43;;;17.60;55.00;;;;;;5006864;28;20194;-60
2023/12/29 11:05:28;;;;;;;1.93;1.13;;;17.40;55.30;;;;;;5000826;28;20617;-60
2023/12/29 11:07:55;;;;;;;1.30;1.20;;;17.40;55.50;;;;;;5003406;28;20498;-61
2023/12/29 11:10:21;;;;;;;1.83;1.10;;;17.70;55.60;;;;;;5006665;28;20205;-61
2023/12/29 11:12:48;;;;;;;1.60;1.50;;;18.00;54.60;;;;;;5000637;28;20429;-59
2023/12/29 11:15:15;;;;;;;1.23;1.10;;;18.30;54.00;;;;;;5000669;28;20496;-60
2023/12/29 11:17:49;;;;;;;1.57;1.40;;;18.40;53.60;;;;;;5000922;28;20985;-60
2023/12/29 11:20:16;;;;;;;1.50;1.40;;;18.40;53.00;;;;;;5005792;28;20489;-60
2023/12/29 11:22:43;;;;;;;1.53;1.43;;;18.10;53.10;;;;;;5006573;28;20429;-61
2023/12/29 11:25:11;;;;;;;1.20;1.10;;;17.90;53.90;;;;;;5000969;28;20472;-59
2023/12/29 11:27:37;;;;;;;2.00;1.20;;;17.90;53.60;;;;;;5005936;28;20487;-59
2023/12/29 11:30:04;;;;;;;2.60;1.40;;;17.60;53.60;;;;;;5001090;28;21014;-59
2023/12/29 11:32:59;;;;;;;1.27;1.17;;;17.50;53.90;;;;;;5001419;28;20464;-60
2023/12/29 11:35:44;;;;;;;1.77;1.60;;;17.60;53.80;;;;;;5002472;28;20895;-59
2023/12/29 11:38:28;;;;;;;1.70;1.50;;;17.60;53.90;;;;;;5003191;28;20453;-61
2023/12/29 11:41:01;;;;;;;1.30;1.20;;;17.60;53.60;;;;;;5006451;28;20537;-60
2023/12/29 11:43:26;;;;;;;2.30;1.00;;;17.60;53.80;;;;;;5007578;28;20444;-57
2023/12/29 11:45:52;;;;;;;1.97;1.33;;;17.40;53.90;;;;;;5001327;28;20533;-60
2023/12/29 11:48:52;;;;;;;1.10;1.00;;;17.30;53.50;;;;;;5003686;28;20278;-60
2023/12/29 11:51:32;;;;;;;1.17;1.07;;;17.40;53.70;;;;;;5001142;28;20193;-60
2023/12/29 11:53:58;;;;;;;1.30;1.20;;;17.20;53.60;;;;;;4999785;28;20967;-60
2023/12/29 11:56:29;;;;;;;1.20;1.10;;;17.00;54.30;;;;;;4998425;28;20464;-61
2023/12/29 11:58:55;;;;;;;1.80;1.43;;;17.00;54.50;;;;;;5004545;28;20500;-62
2023/12/29 12:01:36;;;;;;;1.47;1.37;;;17.20;54.40;;;;;;5005346;28;20444;-60
2023/12/29 12:04:02;;;;;;;1.37;1.27;;;17.00;54.00;;;;;;4998657;28;20244;-59
2023/12/29 12:06:40;;;;;;;1.40;1.30;;;16.80;54.40;;;;;;5004541;28;20492;-60
2023/12/29 12:09:26;;;;;;;1.47;1.20;;;17.00;54.90;;;;;;5003602;28;20186;-60
2023/12/29 12:11:52;;;;;;;1.70;1.60;;;17.00;54.70;;;;;;5007239;28;20408;-60
2023/12/29 12:14:47;;;;;;;4.30;1.50;;;17.00;54.80;;;;;;5004159;28;20441;-58
2023/12/29 12:17:26;;;;;;;1.57;1.47;;;16.90;54.50;;;;;;5004425;28;20217;-60
2023/12/29 12:19:56;;;;;;;2.10;1.70;;;16.90;54.60;;;;;;5006258;28;20457;-60
2023/12/29 12:22:23;;;;;;;1.47;1.33;;;17.00;54.60;;;;;;5007156;28;20959;-59
2023/12/29 12:24:58;;;;;;;1.43;1.33;;;17.10;54.50;;;;;;5004419;28;20425;-60
2023/12/29 12:27:25;;;;;;;1.67;1.50;;;17.20;54.00;;;;;;5003705;28;20488;-61
2023/12/29 12:29:56;;;;;;;1.50;1.40;;;16.90;53.60;;;;;;4999261;28;20795;-60
2023/12/29 12:32:22;;;;;;;1.20;1.00;;;17.10;53.80;;;;;;4998618;28;20781;-59
2023/12/29 12:34:47;;;;;;;1.00;0.90;;;17.20;53.60;;;;;;5001863;28;20437;-59
2023/12/29 12:37:19;;;;;;;1.43;1.33;;;16.90;53.00;;;;;;5002502;28;20213;-61
2023/12/29 12:39:45;;;;;;;6.33;1.70;;;16.40;53.10;;;;;;5004755;28;20538;-59
2023/12/29 12:42:11;;;;;;;1.70;1.60;;;16.40;53.70;;;;;;4998431;28;20449;-61
2023/12/29 12:44:41;;;;;;;1.50;1.40;;;16.30;53.50;;;;;;4999629;28;20422;-60
2023/12/29 12:47:14;;;;;;;1.40;1.30;;;16.50;53.90;;;;;;5001300;28;20225;-60